Temp: 13.0°C   Baro: 1020.8mb
  Wind: 4.9mph   Dir: ENE (78°)
  Rain: 0.7mm (0.0mm/hr)
  Solar: 253W/m2  Hum: 85%
 
Bath Spa Weather Historical Data
 
Daily Summary for May 24, 2018 Units:  Metric    English   Both
Next Day »
Daily Weekly Monthly Yearly Custom
  Current: High: Low: Average:
Temperature: 12.9 °C 14.3 °C 10.5 °C 11.6 °C
Dew Point: 10.4 °C 10.6 °C 8.4 °C 9.1 °C
Humidity: 85% 89% 73% 85%
Wind Speed: 3.2km/h 16.3km/h 0.0km/h 3.2km/h
Wind Gust: 8.0km/h 22.5km/h - -
Wind directionEast - - East
Pressure: 1020.5 hPa 1022.2 hPa 1020.5 hPa -
Precipitation: 0.8 mm      
Historical Graphs
 
 
Tabular Data for May 24, 2018
Time Temperature Dew Point Pressure Wind direction Wind Speed Wind Gust Humidity Rainfall Rate (Hourly) solar
00:00 14.3 °C 9.5 °C 1022.2 hPa ESE 7.9 km/h 20.9 km/h 73% 0.0 mm 0.0 W/m2
00:05 14.2 °C 9.6 °C 1022.2 hPa SE 11.1 km/h 12.9 km/h 74% 0.0 mm 0.0 W/m2
00:10 14.2 °C 9.6 °C 1022.2 hPa ENE 1.4 km/h 11.3 km/h 74% 0.0 mm 0.0 W/m2
00:15 14.1 °C 9.5 °C 1021.9 hPa ESE 7.9 km/h 16.1 km/h 74% 0.0 mm 0.0 W/m2
00:20 14.0 °C 9.4 °C 1021.9 hPa ESE 16.3 km/h 17.7 km/h 74% 0.0 mm 0.0 W/m2
00:25 14.0 °C 9.4 °C 1021.9 hPa SSE 7.9 km/h 12.9 km/h 74% 0.0 mm 0.0 W/m2
00:30 13.9 °C 9.3 °C 1021.9 hPa SE 11.1 km/h 16.1 km/h 74% 0.0 mm 0.0 W/m2
00:35 13.8 °C 9.2 °C 1021.9 hPa SE 9.7 km/h 12.9 km/h 74% 0.0 mm 0.0 W/m2
00:40 13.7 °C 9.3 °C 1021.9 hPa East 7.9 km/h 16.1 km/h 75% 0.0 mm 0.0 W/m2
00:45 13.7 °C 9.3 °C 1021.9 hPa ESE 4.7 km/h 11.3 km/h 75% 0.0 mm 0.0 W/m2
00:50 13.6 °C 9.3 °C 1021.9 hPa Calm   11.3 km/h 75% 0.0 mm 0.0 W/m2
00:55 13.5 °C 9.2 °C 1021.9 hPa ESE 3.2 km/h 12.9 km/h 75% 0.0 mm 0.0 W/m2
01:00 13.5 °C 9.2 °C 1021.9 hPa East 4.7 km/h 11.3 km/h 75% 0.0 mm 0.0 W/m2
01:05 13.4 °C 9.1 °C 1021.9 hPa ESE 6.4 km/h 12.9 km/h 75% 0.0 mm 0.0 W/m2
01:11 13.3 °C 9.0 °C 1021.9 hPa Calm   8.0 km/h 75% 0.0 mm 0.0 W/m2
01:16 13.3 °C 9.2 °C 1021.9 hPa Calm   3.2 km/h 76% 0.0 mm 0.0 W/m2
01:21 13.3 °C 9.2 °C 1021.9 hPa ENE 3.2 km/h 4.8 km/h 76% 0.0 mm 0.0 W/m2
01:26 13.2 °C 9.1 °C 1021.9 hPa SE 3.2 km/h 4.8 km/h 76% 0.0 mm 0.0 W/m2
01:31 13.2 °C 9.3 °C 1021.9 hPa SE 1.4 km/h 1.6 km/h 77% 0.0 mm 0.0 W/m2
01:36 13.1 °C 9.2 °C 1021.9 hPa NNE 3.2 km/h 6.4 km/h 77% 0.0 mm 0.0 W/m2
01:41 13.0 °C 9.1 °C 1021.9 hPa ESE 6.4 km/h 9.7 km/h 77% 0.0 mm 0.0 W/m2
01:46 12.8 °C 8.9 °C 1021.9 hPa ENE 3.2 km/h 9.7 km/h 77% 0.0 mm 0.0 W/m2
01:51 12.7 °C 8.8 °C 1021.9 hPa Calm   12.9 km/h 77% 0.0 mm 0.0 W/m2
01:56 12.6 °C 8.7 °C 1021.9 hPa East 4.7 km/h 12.9 km/h 77% 0.0 mm 0.0 W/m2
02:01 12.5 °C 8.6 °C 1021.9 hPa ENE 16.3 km/h 22.5 km/h 77% 0.0 mm 0.0 W/m2
02:06 12.4 °C 8.5 °C 1021.9 hPa Calm   14.5 km/h 77% 0.0 mm 0.0 W/m2
02:11 12.3 °C 8.8 °C 1021.9 hPa Calm   16.1 km/h 79% 0.0 mm 0.0 W/m2
02:16 12.0 °C 8.7 °C 1022.2 hPa Calm   16.1 km/h 80% 0.0 mm 0.0 W/m2
02:21 11.8 °C 8.6 °C 1021.9 hPa Calm   9.7 km/h 81% 0.3 mm 0.0 W/m2
02:26 11.6 °C 8.8 °C 1022.2 hPa Calm   6.4 km/h 83% 0.3 mm 0.0 W/m2
02:31 11.5 °C 8.9 °C 1021.9 hPa SSE 7.9 km/h 11.3 km/h 84% 0.5 mm 0.0 W/m2
02:36 11.4 °C 8.8 °C 1021.9 hPa ESE 7.9 km/h 8.0 km/h 84% 0.5 mm 0.0 W/m2
02:41 11.3 °C 8.7 °C 1021.9 hPa ESE 4.7 km/h 12.9 km/h 84% 0.5 mm 0.0 W/m2
02:46 11.2 °C 8.8 °C 1021.9 hPa SE 6.4 km/h 12.9 km/h 85% 0.5 mm 0.0 W/m2
02:51 11.2 °C 8.8 °C 1021.9 hPa Calm   3.2 km/h 85% 0.5 mm 0.0 W/m2
02:56 11.1 °C 8.7 °C 1021.9 hPa East 1.4 km/h 8.0 km/h 85% 0.5 mm 0.0 W/m2
03:01 11.1 °C 8.7 °C 1021.9 hPa Calm   1.6 km/h 85% 0.5 mm 0.0 W/m2
03:06 11.1 °C 8.7 °C 1021.6 hPa East 7.9 km/h 8.0 km/h 85% 0.5 mm 0.0 W/m2
03:11 11.2 °C 8.8 °C 1021.6 hPa East 1.4 km/h 1.6 km/h 85% 0.5 mm 0.0 W/m2
03:16 11.1 °C 8.8 °C 1021.9 hPa Calm   1.6 km/h 86% 0.5 mm 0.0 W/m2
03:21 11.1 °C 8.8 °C 1021.9 hPa East 4.7 km/h 11.3 km/h 86% 0.3 mm 0.0 W/m2
03:26 11.2 °C 8.9 °C 1021.6 hPa East 1.4 km/h 3.2 km/h 86% 0.3 mm 0.0 W/m2
03:31 11.2 °C 8.9 °C 1021.9 hPa Calm   3.2 km/h 86% 0.0 mm 0.0 W/m2
03:36 11.1 °C 8.8 °C 1021.9 hPa NNE 3.2 km/h 11.3 km/h 86% 0.0 mm 0.0 W/m2
03:41 11.0 °C 8.7 °C 1021.6 hPa ENE 1.4 km/h 11.3 km/h 86% 0.0 mm 0.0 W/m2
03:46 10.9 °C 8.6 °C 1021.6 hPa North 13.0 km/h 16.1 km/h 86% 0.0 mm 0.0 W/m2
03:51 10.8 °C 8.6 °C 1021.6 hPa North 1.4 km/h 8.0 km/h 86% 0.0 mm 0.0 W/m2
03:56 10.8 °C 8.6 °C 1021.6 hPa ENE 3.2 km/h 8.0 km/h 86% 0.0 mm 0.0 W/m2
04:01 10.7 °C 8.5 °C 1021.6 hPa NE 1.4 km/h 8.0 km/h 86% 0.0 mm 0.0 W/m2
04:06 10.7 °C 8.5 °C 1021.6 hPa East 1.4 km/h 3.2 km/h 86% 0.0 mm 0.0 W/m2
04:11 10.7 °C 8.5 °C 1021.6 hPa East 4.7 km/h 4.8 km/h 86% 0.0 mm 0.0 W/m2
04:16 10.7 °C 8.5 °C 1021.6 hPa NNE 1.4 km/h 6.4 km/h 86% 0.0 mm 0.0 W/m2
04:21 10.7 °C 8.5 °C 1021.2 hPa ESE 1.4 km/h 11.3 km/h 86% 0.0 mm 0.0 W/m2
04:26 10.6 °C 8.4 °C 1021.6 hPa ESE 3.2 km/h 3.2 km/h 86% 0.0 mm 0.0 W/m2
04:31 10.7 °C 8.5 °C 1021.6 hPa NE 1.4 km/h 4.8 km/h 86% 0.0 mm 0.0 W/m2
04:36 10.7 °C 8.5 °C 1021.6 hPa NE 1.4 km/h 3.2 km/h 86% 0.0 mm 0.0 W/m2
04:41 10.7 °C 8.5 °C 1021.6 hPa NE 3.2 km/h 9.7 km/h 86% 0.0 mm 0.0 W/m2
04:46 10.7 °C 8.6 °C 1021.2 hPa East 7.9 km/h 12.9 km/h 87% 0.0 mm 0.0 W/m2
04:51 10.7 °C 8.6 °C 1021.2 hPa NE 6.4 km/h 11.3 km/h 87% 0.0 mm 0.0 W/m2
04:56 10.7 °C 8.6 °C 1021.2 hPa ESE 7.9 km/h 14.5 km/h 87% 0.0 mm 0.0 W/m2
05:01 10.6 °C 8.5 °C 1021.2 hPa ENE 4.7 km/h 4.8 km/h 87% 0.0 mm 0.0 W/m2
05:06 10.6 °C 8.5 °C 1021.2 hPa Calm   4.8 km/h 87% 0.0 mm 0.0 W/m2
05:11 10.6 °C 8.5 °C 1021.2 hPa NE 3.2 km/h 4.8 km/h 87% 0.0 mm 0.0 W/m2
05:16 10.6 °C 8.5 °C 1021.2 hPa NE 4.7 km/h 16.1 km/h 87% 0.0 mm 0.0 W/m2
05:21 10.6 °C 8.5 °C 1021.2 hPa ESE 7.9 km/h 12.9 km/h 87% 0.0 mm 0.0 W/m2
05:26 10.5 °C 8.4 °C 1021.2 hPa ENE 1.4 km/h 11.3 km/h 87% 0.0 mm 0.0 W/m2
05:31 10.6 °C 8.5 °C 1021.2 hPa Calm   8.0 km/h 87% 0.0 mm 0.0 W/m2
05:36 10.6 °C 8.5 °C 1021.6 hPa Calm   8.0 km/h 87% 0.0 mm 0.0 W/m2
05:41 10.6 °C 8.5 °C 1021.2 hPa SE 7.9 km/h 11.3 km/h 87% 0.0 mm 0.0 W/m2
05:46 10.5 °C 8.4 °C 1021.2 hPa North 1.4 km/h 6.4 km/h 87% 0.0 mm 0.0 W/m2
05:51 10.5 °C 8.4 °C 1021.2 hPa Calm   11.3 km/h 87% 0.0 mm 5.0 W/m2
05:56 10.5 °C 8.4 °C 1021.2 hPa NE 3.2 km/h 6.4 km/h 87% 0.0 mm 5.0 W/m2
06:01 10.5 °C 8.4 °C 1021.2 hPa Calm   3.2 km/h 87% 0.0 mm 7.0 W/m2
06:06 10.6 °C 8.5 °C 1021.2 hPa Calm   4.8 km/h 87% 0.0 mm 9.0 W/m2
06:11 10.6 °C 8.5 °C 1021.6 hPa Calm   8.0 km/h 87% 0.0 mm 12.0 W/m2
06:16 10.6 °C 8.5 °C 1021.6 hPa NNE 1.4 km/h 4.8 km/h 87% 0.0 mm 21.0 W/m2
06:21 10.6 °C 8.5 °C 1021.2 hPa NNE 1.4 km/h 3.2 km/h 87% 0.0 mm 25.0 W/m2
06:26 10.6 °C 8.5 °C 1021.6 hPa Calm   1.6 km/h 87% 0.0 mm 23.0 W/m2
06:31 10.7 °C 8.6 °C 1021.2 hPa NNE 1.4 km/h 1.6 km/h 87% 0.0 mm 26.0 W/m2
06:36 10.7 °C 8.6 °C 1021.2 hPa NNE 4.7 km/h 6.4 km/h 87% 0.0 mm 39.0 W/m2
06:41 10.7 °C 8.6 °C 1021.2 hPa Calm   4.8 km/h 87% 0.0 mm 40.0 W/m2
06:46 10.7 °C 8.6 °C 1021.2 hPa NNE 1.4 km/h 8.0 km/h 87% 0.0 mm 37.0 W/m2
06:51 10.7 °C 8.6 °C 1021.2 hPa ESE 1.4 km/h 4.8 km/h 87% 0.0 mm 26.0 W/m2
06:56 10.7 °C 8.6 °C 1021.2 hPa ENE 13.0 km/h 16.1 km/h 87% 0.0 mm 23.0 W/m2
07:01 10.7 °C 8.6 °C 1021.2 hPa SE 1.4 km/h 9.7 km/h 87% 0.0 mm 21.0 W/m2
07:06 10.7 °C 8.6 °C 1021.2 hPa SE 6.4 km/h 11.3 km/h 87% 0.0 mm 21.0 W/m2
07:11 10.6 °C 8.5 °C 1021.2 hPa East 1.4 km/h 9.7 km/h 87% 0.0 mm 21.0 W/m2
07:16 10.7 °C 8.6 °C 1021.2 hPa Calm   3.2 km/h 87% 0.0 mm 26.0 W/m2
07:21 10.7 °C 8.6 °C 1021.2 hPa ENE 3.2 km/h 8.0 km/h 87% 0.0 mm 40.0 W/m2
07:26 10.6 °C 8.5 °C 1021.2 hPa South 1.4 km/h 6.4 km/h 87% 0.0 mm 33.0 W/m2
07:31 10.6 °C 8.5 °C 1021.2 hPa SE 1.4 km/h 12.9 km/h 87% 0.0 mm 28.0 W/m2
07:36 10.7 °C 8.8 °C 1021.2 hPa Calm   1.6 km/h 88% 0.0 mm 32.0 W/m2
07:41 10.7 °C 8.8 °C 1021.2 hPa ENE 1.4 km/h 3.2 km/h 88% 0.0 mm 37.0 W/m2
07:46 10.7 °C 8.8 °C 1021.2 hPa Calm   8.0 km/h 88% 0.0 mm 42.0 W/m2
07:51 10.7 °C 8.8 °C 1021.2 hPa NNE 1.4 km/h 9.7 km/h 88% 0.0 mm 47.0 W/m2
07:56 10.8 °C 8.9 °C 1021.2 hPa North 1.4 km/h 6.4 km/h 88% 0.0 mm 56.0 W/m2
08:01 10.8 °C 8.9 °C 1021.2 hPa NNE 3.2 km/h 9.7 km/h 88% 0.0 mm 72.0 W/m2
08:07 10.8 °C 8.9 °C 1021.2 hPa Calm   4.8 km/h 88% 0.0 mm 35.0 W/m2
08:12 10.8 °C 8.7 °C 1021.2 hPa Calm   4.8 km/h 87% 0.0 mm 32.0 W/m2
08:17 10.8 °C 8.9 °C 1021.2 hPa NNE 1.4 km/h 3.2 km/h 88% 0.0 mm 30.0 W/m2
08:22 10.8 °C 8.9 °C 1021.2 hPa East 1.4 km/h 12.9 km/h 88% 0.0 mm 35.0 W/m2
08:27 10.8 °C 8.9 °C 1021.2 hPa Calm   4.8 km/h 88% 0.0 mm 28.0 W/m2
08:32 10.9 °C 9.0 °C 1021.2 hPa SE 4.7 km/h 11.3 km/h 88% 0.0 mm 32.0 W/m2
08:37 10.8 °C 8.7 °C 1021.2 hPa Calm   3.2 km/h 87% 0.0 mm 49.0 W/m2
08:42 10.9 °C 9.0 °C 1021.2 hPa Calm   3.2 km/h 88% 0.0 mm 76.0 W/m2
08:47 11.0 °C 9.1 °C 1021.2 hPa Calm     88% 0.0 mm 100.0 W/m2
08:52 11.0 °C 9.1 °C 1021.2 hPa Calm   1.6 km/h 88% 0.0 mm 93.0 W/m2
08:57 11.1 °C 9.2 °C 1021.2 hPa Calm   4.8 km/h 88% 0.0 mm 72.0 W/m2
09:02 11.2 °C 9.3 °C 1021.2 hPa ESE 6.4 km/h 8.0 km/h 88% 0.0 mm 72.0 W/m2
09:07 11.2 °C 9.3 °C 1021.2 hPa Calm   3.2 km/h 88% 0.3 mm 91.0 W/m2
09:12 11.2 °C 9.5 °C 1021.2 hPa Calm   3.2 km/h 89% 0.3 mm 88.0 W/m2
09:17 11.2 °C 9.5 °C 1021.2 hPa Calm   6.4 km/h 89% 0.3 mm 90.0 W/m2
09:22 11.2 °C 9.5 °C 1021.2 hPa Calm   1.6 km/h 89% 0.3 mm 116.0 W/m2
09:27 11.2 °C 9.5 °C 1021.2 hPa Calm   4.8 km/h 89% 0.3 mm 100.0 W/m2
09:32 11.3 °C 9.6 °C 1021.2 hPa ENE 4.7 km/h 16.1 km/h 89% 0.3 mm 98.0 W/m2
09:37 11.3 °C 9.6 °C 1021.2 hPa Calm   11.3 km/h 89% 0.3 mm 116.0 W/m2
09:42 11.3 °C 9.6 °C 1021.2 hPa NE 1.4 km/h 12.9 km/h 89% 0.3 mm 135.0 W/m2
09:47 11.3 °C 9.6 °C 1021.2 hPa Calm   9.7 km/h 89% 0.3 mm 123.0 W/m2
09:52 11.3 °C 9.6 °C 1021.2 hPa East 6.4 km/h 11.3 km/h 89% 0.3 mm 102.0 W/m2
09:57 11.5 °C 9.7 °C 1021.2 hPa NE 6.4 km/h 11.3 km/h 89% 0.3 mm 100.0 W/m2
10:02 11.5 °C 9.7 °C 1021.2 hPa North 3.2 km/h 3.2 km/h 89% 0.3 mm 100.0 W/m2
10:07 11.5 °C 9.7 °C 1021.2 hPa Calm   3.2 km/h 89% 0.0 mm 100.0 W/m2
10:12 11.5 °C 9.7 °C 1021.2 hPa ESE 1.4 km/h 8.0 km/h 89% 0.0 mm 98.0 W/m2
10:17 11.5 °C 9.7 °C 1021.2 hPa Calm   4.8 km/h 89% 0.0 mm 95.0 W/m2
10:22 11.6 °C 9.8 °C 1020.9 hPa Calm   8.0 km/h 89% 0.0 mm 113.0 W/m2
10:27 11.7 °C 9.9 °C 1020.9 hPa Calm   4.8 km/h 89% 0.0 mm 116.0 W/m2
10:32 11.7 °C 9.9 °C 1020.9 hPa NE 1.4 km/h 12.9 km/h 89% 0.0 mm 109.0 W/m2
10:37 11.7 °C 9.8 °C 1020.9 hPa Calm   11.3 km/h 88% 0.0 mm 121.0 W/m2
10:42 11.7 °C 9.8 °C 1020.9 hPa NNW 1.4 km/h 8.0 km/h 88% 0.0 mm 125.0 W/m2
10:47 11.8 °C 9.9 °C 1020.9 hPa Calm   9.7 km/h 88% 0.0 mm 132.0 W/m2
10:52 11.8 °C 9.9 °C 1020.9 hPa WSW 3.2 km/h 4.8 km/h 88% 0.0 mm 139.0 W/m2
10:57 12.0 °C 10.1 °C 1020.9 hPa East 1.4 km/h 11.3 km/h 88% 0.0 mm 148.0 W/m2
11:02 12.0 °C 10.1 °C 1020.9 hPa East 14.3 km/h 14.5 km/h 88% 0.0 mm 174.0 W/m2
11:07 12.2 °C 10.3 °C 1020.9 hPa NE 1.4 km/h 12.9 km/h 88% 0.0 mm 153.0 W/m2
11:12 12.2 °C 10.3 °C 1020.9 hPa East 4.7 km/h 14.5 km/h 88% 0.0 mm 134.0 W/m2
11:17 12.2 °C 10.3 °C 1020.9 hPa SE 1.4 km/h 12.9 km/h 88% 0.0 mm 123.0 W/m2
11:22 12.2 °C 10.1 °C 1021.2 hPa ESE 1.4 km/h 8.0 km/h 87% 0.0 mm 98.0 W/m2
11:27 12.2 °C 10.1 °C 1021.2 hPa SE 14.3 km/h 16.1 km/h 87% 0.0 mm 104.0 W/m2
11:32 12.1 °C 10.0 °C 1020.9 hPa NNE 3.2 km/h 16.1 km/h 87% 0.0 mm 148.0 W/m2
11:37 12.2 °C 10.1 °C 1020.9 hPa Calm   1.6 km/h 87% 0.0 mm 142.0 W/m2
11:42 12.2 °C 10.1 °C 1020.9 hPa NE 4.7 km/h 11.3 km/h 87% 0.0 mm 123.0 W/m2
11:47 12.3 °C 10.2 °C 1020.9 hPa SE 1.4 km/h 4.8 km/h 87% 0.0 mm 146.0 W/m2
11:52 12.4 °C 10.3 °C 1020.5 hPa NNE 3.2 km/h 6.4 km/h 87% 0.0 mm 185.0 W/m2
11:57 12.5 °C 10.4 °C 1020.5 hPa ENE 3.2 km/h 11.3 km/h 87% 0.0 mm 181.0 W/m2
12:02 12.7 °C 10.6 °C 1020.9 hPa NE 7.9 km/h 8.0 km/h 87% 0.0 mm 232.0 W/m2
12:07 12.7 °C 10.4 °C 1020.5 hPa NE 9.7 km/h 14.5 km/h 86% 0.0 mm 218.0 W/m2
12:12 12.8 °C 10.5 °C 1020.5 hPa NE 6.4 km/h 11.3 km/h 86% 0.0 mm 171.0 W/m2
12:17 12.9 °C 10.6 °C 1020.5 hPa NE 6.4 km/h 12.9 km/h 86% 0.0 mm 158.0 W/m2
12:22 12.8 °C 10.3 °C 1020.5 hPa East 4.7 km/h 20.9 km/h 85% 0.0 mm 227.0 W/m2
12:27 12.9 °C 10.4 °C 1020.5 hPa ESE 9.7 km/h 14.5 km/h 85% 0.0 mm 260.0 W/m2
12:32 12.9 °C 10.4 °C 1020.5 hPa East 3.2 km/h 8.0 km/h 85% 0.0 mm 304.0 W/m2